Time;durP1;ratioP1;P1;durP2;ratioP2;P2;SDS_P1;SDS_P2;PMS_P1;PMS_P2;Temp;Humidity;BMP_temperature;BMP_pressure;BME280_temperature;BME280_humidity;BME280_pressure;Samples;Min_cycle;Max_cycle;Signal;HPM_P1;HPM_P2
2022/09/25 00:00:53;;;;;;;0.30;0.30;;;9.00;99.90;;;;;;5053893;28;20246;-67
2022/09/25 00:03:20;;;;;;;1.00;0.73;;;8.90;99.90;;;;;;5053710;28;20211;-69
2022/09/25 00:05:46;;;;;;;0.50;0.50;;;9.00;99.90;;;;;;5053877;28;20176;-69
2022/09/25 00:08:13;;;;;;;0.60;0.60;;;9.00;99.90;;;;;;5053841;28;20268;-67
2022/09/25 00:10:44;;;;;;;0.70;0.70;;;9.00;99.90;;;;;;5053928;28;20207;-69
2022/09/25 00:13:10;;;;;;;0.77;0.75;;;9.10;99.90;;;;;;5053508;28;20215;-68
2022/09/25 00:15:36;;;;;;;0.43;0.43;;;9.10;99.90;;;;;;5053876;28;20650;-68
2022/09/25 00:18:03;;;;;;;2.42;2.22;;;9.10;99.90;;;;;;5053547;28;20452;-68
2022/09/25 00:20:28;;;;;;;0.93;0.93;;;9.00;99.90;;;;;;5053545;28;20217;-68
2022/09/25 00:22:55;;;;;;;0.40;0.40;;;8.90;99.90;;;;;;5053405;28;20255;-69
2022/09/25 00:25:21;;;;;;;0.93;0.93;;;8.80;99.90;;;;;;5053518;28;20180;-68
2022/09/25 00:27:49;;;;;;;0.45;0.45;;;8.90;99.90;;;;;;5053721;28;20264;-69
2022/09/25 00:30:15;;;;;;;0.65;0.65;;;8.80;99.90;;;;;;5053590;28;20193;-67
2022/09/25 00:32:40;;;;;;;0.70;0.50;;;8.80;99.90;;;;;;5053259;28;20177;-67
2022/09/25 00:35:06;;;;;;;2.87;2.77;;;8.80;99.90;;;;;;5053256;28;20178;-69
2022/09/25 00:37:33;;;;;;;0.50;0.50;;;8.90;99.90;;;;;;5053489;28;20236;-69
2022/09/25 00:39:59;;;;;;;2.65;1.15;;;8.70;99.90;;;;;;5053364;28;20433;-67
2022/09/25 00:42:25;;;;;;;0.40;0.40;;;8.90;99.90;;;;;;5053334;28;20657;-67
2022/09/25 00:44:57;;;;;;;5.32;1.45;;;9.00;99.90;;;;;;5053171;28;20415;-68
2022/09/25 00:47:41;;;;;;;4.45;1.38;;;8.90;99.90;;;;;;5053558;28;20694;-69
2022/09/25 00:50:21;;;;;;;0.50;0.50;;;9.00;99.90;;;;;;5053448;28;20195;-69
2022/09/25 00:52:48;;;;;;;0.30;0.30;;;9.40;99.90;;;;;;5053295;28;20173;-69
2022/09/25 00:55:14;;;;;;;0.40;0.40;;;8.80;99.90;;;;;;5053681;28;20181;-68
2022/09/25 00:57:43;;;;;;;1.38;0.85;;;8.90;99.90;;;;;;5053169;28;20270;-68
2022/09/25 01:00:11;;;;;;;0.40;0.40;;;8.90;99.90;;;;;;5053373;28;20198;-68
2022/09/25 01:02:41;;;;;;;0.50;0.50;;;9.00;99.90;;;;;;5053467;28;20165;-67
2022/09/25 01:05:13;;;;;;;0.50;0.50;;;9.00;99.90;;;;;;5053333;28;20177;-68
2022/09/25 01:07:42;;;;;;;0.40;0.40;;;9.00;99.90;;;;;;5053362;28;20200;-68
2022/09/25 01:10:09;;;;;;;0.85;0.50;;;9.10;99.90;;;;;;5053041;28;20291;-67
2022/09/25 01:12:38;;;;;;;0.50;0.50;;;9.10;99.90;;;;;;5052910;28;20170;-68
2022/09/25 01:15:11;;;;;;;0.73;0.73;;;9.00;99.90;;;;;;5053309;28;20184;-67
2022/09/25 01:17:55;;;;;;;0.52;0.52;;;8.90;99.90;;;;;;5053066;28;20201;-68
2022/09/25 01:20:59;;;;;;;0.63;0.63;;;8.90;99.90;;;;;;5052933;28;20203;-69
2022/09/25 01:23:33;;;;;;;0.88;0.50;;;9.00;99.90;;;;;;5052956;28;20170;-69
2022/09/25 01:25:59;;;;;;;0.95;0.95;;;9.00;99.90;;;;;;5051721;28;20730;-68
2022/09/25 01:28:34;;;;;;;0.30;0.30;;;9.10;99.90;;;;;;5052918;28;20181;-68
2022/09/25 01:31:10;;;;;;;1.30;0.93;;;9.10;99.90;;;;;;5052867;28;20224;-70
2022/09/25 01:33:45;;;;;;;0.45;0.45;;;9.20;99.90;;;;;;5053016;28;20181;-68
2022/09/25 01:36:19;;;;;;;1.52;1.02;;;9.30;99.90;;;;;;5053132;28;20684;-68
2022/09/25 01:38:56;;;;;;;0.43;0.40;;;9.30;99.90;;;;;;5052940;28;20226;-70
2022/09/25 01:41:46;;;;;;;0.70;0.70;;;9.30;99.90;;;;;;5053196;28;20192;-69
2022/09/25 01:44:27;;;;;;;1.67;1.42;;;9.30;99.90;;;;;;5052960;28;20164;-69
2022/09/25 01:46:55;;;;;;;0.80;0.80;;;9.30;99.90;;;;;;5054136;28;20168;-68
2022/09/25 01:49:32;;;;;;;0.55;0.55;;;9.40;99.90;;;;;;5056607;28;20702;-69
2022/09/25 01:52:01;;;;;;;0.50;0.50;;;9.50;99.90;;;;;;5055086;28;20308;-69
2022/09/25 01:54:35;;;;;;;0.95;0.65;;;9.50;99.90;;;;;;5056226;28;20264;-69
2022/09/25 01:57:08;;;;;;;0.60;0.60;;;9.60;99.90;;;;;;5056392;28;20607;-69
2022/09/25 01:59:39;;;;;;;0.50;0.50;;;9.70;99.90;;;;;;5056408;28;20208;-68
2022/09/25 02:02:09;;;;;;;0.52;0.52;;;9.70;99.90;;;;;;5056113;28;20255;-69
2022/09/25 02:04:39;;;;;;;3.05;1.30;;;9.60;99.90;;;;;;5056019;28;20227;-70
2022/09/25 02:07:10;;;;;;;0.40;0.40;;;9.60;99.90;;;;;;5056452;28;20259;-67
2022/09/25 02:09:42;;;;;;;1.65;1.55;;;9.50;99.90;;;;;;5056281;28;20162;-69
2022/09/25 02:12:16;;;;;;;0.75;0.75;;;9.60;99.90;;;;;;5055901;28;20185;-67
2022/09/25 02:15:03;;;;;;;0.60;0.60;;;9.60;99.90;;;;;;5055872;28;20176;-68
2022/09/25 02:20:33;;;;;;;1.30;1.20;;;9.60;99.90;;;;;;5055778;28;20185;-67
2022/09/25 02:23:13;;;;;;;0.30;0.30;;;9.60;99.90;;;;;;5055868;28;20173;-67
2022/09/25 02:25:44;;;;;;;0.40;0.40;;;9.70;99.90;;;;;;5055718;28;20200;-69
2022/09/25 02:28:10;;;;;;;4.30;2.22;;;9.90;99.90;;;;;;5055970;28;20177;-68
2022/09/25 02:30:36;;;;;;;0.47;0.47;;;9.90;99.90;;;;;;5055778;28;20670;-68
2022/09/25 02:33:02;;;;;;;0.70;0.70;;;10.00;99.90;;;;;;5055407;28;20417;-68
2022/09/25 02:35:27;;;;;;;0.80;0.50;;;10.00;99.90;;;;;;5055996;28;20232;-69
2022/09/25 02:37:56;;;;;;;1.67;1.57;;;10.10;99.90;;;;;;5055491;28;20205;-68
2022/09/25 02:40:32;;;;;;;0.40;0.40;;;10.10;99.90;;;;;;5055416;28;20200;-68
2022/09/25 02:43:09;;;;;;;0.63;0.63;;;10.00;99.90;;;;;;5055466;28;20189;-68
2022/09/25 02:45:49;;;;;;;0.50;0.50;;;9.90;99.90;;;;;;5055542;28;20165;-69
2022/09/25 02:48:48;;;;;;;0.60;0.60;;;9.80;99.90;;;;;;5055392;28;20180;-69
2022/09/25 02:51:28;;;;;;;0.73;0.65;;;9.80;99.90;;;;;;5055456;28;20197;-68
2022/09/25 02:54:09;;;;;;;0.40;0.40;;;9.80;99.90;;;;;;5055025;28;20158;-69
2022/09/25 02:56:40;;;;;;;0.88;0.88;;;9.70;99.90;;;;;;5055212;28;20177;-68
2022/09/25 02:59:14;;;;;;;2.60;0.85;;;9.70;99.90;;;;;;5054947;28;20655;-68
2022/09/25 03:01:41;;;;;;;0.70;0.70;;;9.80;99.90;;;;;;5055120;28;20218;-68
2022/09/25 03:04:09;;;;;;;0.40;0.40;;;9.80;99.90;;;;;;5054780;28;20200;-68
2022/09/25 03:06:37;;;;;;;0.60;0.60;;;9.80;99.90;;;;;;5054959;28;20531;-67
2022/09/25 03:09:03;;;;;;;0.45;0.45;;;9.70;99.90;;;;;;5055169;28;20265;-68
2022/09/25 03:11:29;;;;;;;0.50;0.43;;;9.70;99.90;;;;;;5054839;28;20193;-68
2022/09/25 03:14:00;;;;;;;1.63;0.73;;;9.70;99.90;;;;;;5054620;28;20652;-67
2022/09/25 03:16:47;;;;;;;0.52;0.52;;;9.70;99.90;;;;;;5055043;28;20184;-69
2022/09/25 03:19:13;;;;;;;0.60;0.60;;;9.70;99.90;;;;;;5054922;28;20536;-69
2022/09/25 03:21:39;;;;;;;0.55;0.55;;;9.70;99.90;;;;;;5054595;28;20190;-68
2022/09/25 03:24:05;;;;;;;0.70;0.40;;;9.60;99.90;;;;;;5054576;28;20171;-69
2022/09/25 03:26:31;;;;;;;0.50;0.50;;;9.60;99.90;;;;;;5054631;28;20647;-69
2022/09/25 03:29:01;;;;;;;0.40;0.40;;;9.60;99.90;;;;;;5054692;28;20200;-68
2022/09/25 03:31:28;;;;;;;0.40;0.40;;;9.70;99.90;;;;;;5054623;28;20193;-68
2022/09/25 03:33:54;;;;;;;0.40;0.40;;;9.60;99.90;;;;;;5054306;28;20169;-69
2022/09/25 03:36:22;;;;;;;0.40;0.40;;;9.60;99.90;;;;;;5054453;28;20223;-70
2022/09/25 03:38:50;;;;;;;0.40;0.40;;;9.60;99.90;;;;;;5054260;28;20655;-69
2022/09/25 03:41:20;;;;;;;0.63;0.63;;;9.60;99.90;;;;;;5054334;28;20215;-69
2022/09/25 03:43:50;;;;;;;0.50;0.50;;;9.70;99.90;;;;;;5054037;28;20269;-70
2022/09/25 03:46:20;;;;;;;0.30;0.30;;;9.70;99.90;;;;;;5054161;28;20176;-68
2022/09/25 03:48:46;;;;;;;0.40;0.40;;;9.80;99.90;;;;;;5054432;28;20170;-69
2022/09/25 03:51:12;;;;;;;0.30;0.30;;;9.70;99.90;;;;;;5054076;28;20604;-69
2022/09/25 03:53:38;;;;;;;0.93;0.53;;;9.70;99.90;;;;;;5054104;28;20174;-68
2022/09/25 03:56:19;;;;;;;0.40;0.40;;;9.70;99.90;;;;;;5054220;28;20493;-68
2022/09/25 03:58:45;;;;;;;0.77;0.77;;;9.70;99.90;;;;;;5053827;28;20559;-68
2022/09/25 04:01:12;;;;;;;1.75;1.15;;;9.80;99.90;;;;;;5053851;28;20182;-69
2022/09/25 04:03:38;;;;;;;0.98;0.98;;;9.80;99.90;;;;;;5053696;28;20184;-68
2022/09/25 04:06:06;;;;;;;1.00;1.00;;;9.90;99.90;;;;;;5054015;28;20524;-70
2022/09/25 04:08:34;;;;;;;0.40;0.40;;;9.90;99.90;;;;;;5053910;28;20178;-69
2022/09/25 04:11:00;;;;;;;0.95;0.68;;;9.80;99.90;;;;;;5053205;28;20196;-67
2022/09/25 04:13:28;;;;;;;1.65;1.00;;;9.70;99.90;;;;;;5053573;28;20178;-69
2022/09/25 04:15:56;;;;;;;0.40;0.40;;;9.60;99.90;;;;;;5053915;28;20170;-68
2022/09/25 04:18:23;;;;;;;0.60;0.60;;;9.70;99.90;;;;;;5053847;28;20202;-69
2022/09/25 04:20:49;;;;;;;0.70;0.70;;;9.60;99.90;;;;;;5053616;28;20196;-69
2022/09/25 04:23:14;;;;;;;1.53;1.53;;;9.90;99.90;;;;;;5053466;28;20178;-69
2022/09/25 04:25:40;;;;;;;0.50;0.50;;;9.50;99.90;;;;;;5051982;28;20186;-69
2022/09/25 04:28:06;;;;;;;0.57;0.57;;;9.60;99.90;;;;;;5053835;28;20248;-67
2022/09/25 04:30:33;;;;;;;1.40;1.40;;;9.60;99.90;;;;;;5053673;28;20891;-68
2022/09/25 04:35:43;;;;;;;1.05;1.05;;;9.50;99.90;;;;;;5051213;28;20180;-69
2022/09/25 04:38:10;;;;;;;1.25;1.23;;;9.60;99.90;;;;;;5051848;28;20231;-69
2022/09/25 04:40:36;;;;;;;1.03;1.03;;;9.70;99.90;;;;;;5051557;28;20189;-68
2022/09/25 04:43:04;;;;;;;0.80;0.80;;;9.60;99.90;;;;;;5052384;28;20198;-69
2022/09/25 04:45:32;;;;;;;0.40;0.40;;;9.70;99.90;;;;;;5053492;28;20826;-69
2022/09/25 04:47:59;;;;;;;1.05;0.55;;;9.60;99.90;;;;;;5052038;28;20166;-68
2022/09/25 04:50:27;;;;;;;2.38;0.93;;;9.60;99.90;;;;;;5053428;28;20204;-69
2022/09/25 04:52:53;;;;;;;0.40;0.40;;;10.00;99.90;;;;;;5053335;28;20189;-69
2022/09/25 04:55:23;;;;;;;1.30;1.30;;;9.80;99.90;;;;;;5053501;28;20257;-69
2022/09/25 04:57:53;;;;;;;9.48;1.33;;;9.90;99.90;;;;;;5053305;28;20672;-68
2022/09/25 05:00:20;;;;;;;0.35;0.35;;;9.80;99.90;;;;;;5053398;28;20178;-68
2022/09/25 05:02:47;;;;;;;0.98;0.98;;;9.70;99.90;;;;;;5051782;28;20171;-69
2022/09/25 05:05:14;;;;;;;0.47;0.47;;;10.20;99.90;;;;;;5053329;28;20654;-69
2022/09/25 05:07:50;;;;;;;0.40;0.40;;;9.90;99.90;;;;;;5053192;28;20185;-68
2022/09/25 05:10:15;;;;;;;0.80;0.80;;;10.10;99.90;;;;;;5053361;28;20525;-69
2022/09/25 05:12:42;;;;;;;0.60;0.60;;;10.10;99.90;;;;;;5053088;28;20171;-69
2022/09/25 05:15:09;;;;;;;0.82;0.82;;;10.10;99.90;;;;;;5053275;28;20177;-69
2022/09/25 05:17:34;;;;;;;0.60;0.57;;;10.00;99.90;;;;;;5052918;28;20205;-69
2022/09/25 05:20:02;;;;;;;0.50;0.50;;;10.10;99.90;;;;;;5052990;28;20170;-70
2022/09/25 05:22:27;;;;;;;0.30;0.30;;;9.90;99.90;;;;;;5056836;28;20564;-70
2022/09/25 05:24:53;;;;;;;0.40;0.40;;;9.80;99.90;;;;;;5056680;28;20178;-69
2022/09/25 05:27:20;;;;;;;1.80;0.53;;;9.80;99.90;;;;;;5055453;28;20599;-69
2022/09/25 05:29:45;;;;;;;0.40;0.40;;;9.80;99.90;;;;;;5057438;28;20202;-69
2022/09/25 05:32:11;;;;;;;0.80;0.80;;;;;;;;;;5055759;28;20201;-69
2022/09/25 05:34:37;;;;;;;0.93;0.93;;;10.00;99.90;;;;;;5056277;28;20205;-69
2022/09/25 05:37:03;;;;;;;1.70;1.60;;;10.00;99.90;;;;;;5056939;28;20403;-68
2022/09/25 05:39:28;;;;;;;0.90;0.90;;;10.10;99.90;;;;;;5056937;28;20205;-69
2022/09/25 05:41:54;;;;;;;0.87;0.80;;;10.10;99.90;;;;;;5057267;28;20281;-69
2022/09/25 05:44:20;;;;;;;0.73;0.73;;;10.10;99.90;;;;;;5056319;28;20223;-69
2022/09/25 05:46:45;;;;;;;0.93;0.93;;;10.30;99.90;;;;;;5057170;28;20253;-68
2022/09/25 05:49:11;;;;;;;0.30;0.30;;;;;;;;;;5056024;28;20895;-69
2022/09/25 05:51:37;;;;;;;0.90;0.90;;;10.10;99.90;;;;;;5055425;28;20197;-68
2022/09/25 05:54:03;;;;;;;0.30;0.30;;;10.00;99.90;;;;;;5056258;28;20182;-68
2022/09/25 05:56:28;;;;;;;0.50;0.50;;;9.80;99.90;;;;;;5054936;28;20173;-71
2022/09/25 05:58:57;;;;;;;0.87;0.87;;;9.90;99.90;;;;;;5056871;28;20667;-70
2022/09/25 06:01:23;;;;;;;0.30;0.30;;;10.10;99.90;;;;;;5056356;28;20190;-70
2022/09/25 06:03:49;;;;;;;0.63;0.60;;;;;;;;;;5053591;28;20685;-69
2022/09/25 06:06:14;;;;;;;0.90;0.90;;;9.90;99.90;;;;;;5055517;28;20658;-68
2022/09/25 06:08:40;;;;;;;0.37;0.37;;;10.10;99.90;;;;;;5056807;28;20190;-68
2022/09/25 06:11:07;;;;;;;0.90;0.90;;;9.70;99.90;;;;;;5054671;28;20229;-69
2022/09/25 06:13:33;;;;;;;5.18;1.10;;;10.30;99.90;;;;;;5055895;28;20616;-68
2022/09/25 06:15:59;;;;;;;0.65;0.65;;;10.40;99.90;;;;;;5056121;28;20257;-69
2022/09/25 06:18:26;;;;;;;0.80;0.77;;;10.60;99.90;;;;;;5055848;28;20615;-70
2022/09/25 06:20:59;;;;;;;1.05;0.93;;;10.60;99.90;;;;;;5055795;28;20197;-69
2022/09/25 06:23:24;;;;;;;1.10;1.10;;;10.60;99.90;;;;;;5055941;28;20213;-70
2022/09/25 06:25:50;;;;;;;5.10;2.57;;;10.40;99.90;;;;;;5054819;28;20217;-70
2022/09/25 06:28:15;;;;;;;0.30;0.30;;;10.60;99.90;;;;;;5055030;28;20176;-69
2022/09/25 06:30:41;;;;;;;1.13;1.13;;;10.70;99.90;;;;;;5056084;28;20550;-70
2022/09/25 06:33:11;;;;;;;0.60;0.60;;;10.80;99.90;;;;;;5053301;28;20170;-68
2022/09/25 06:35:43;;;;;;;0.60;0.60;;;10.60;99.90;;;;;;5055934;28;20198;-71
2022/09/25 06:38:10;;;;;;;0.60;0.60;;;10.50;99.90;;;;;;5056025;28;20254;-69
2022/09/25 06:40:39;;;;;;;1.02;1.02;;;;;;;;;;5054537;28;20193;-70
2022/09/25 06:43:08;;;;;;;2.17;1.13;;;11.30;99.90;;;;;;5053896;28;20170;-69
2022/09/25 06:45:34;;;;;;;0.40;0.40;;;11.00;99.90;;;;;;5053910;28;20256;-70
2022/09/25 06:48:11;;;;;;;13.27;1.85;;;11.10;99.90;;;;;;5054497;28;20643;-69
2022/09/25 06:50:51;;;;;;;1.20;1.10;;;11.00;99.90;;;;;;5055326;28;20570;-69
2022/09/25 06:53:18;;;;;;;1.25;0.60;;;11.00;99.90;;;;;;5055139;28;20171;-69
2022/09/25 06:55:44;;;;;;;0.85;0.85;;;11.20;99.90;;;;;;5055076;28;20254;-70
2022/09/25 06:58:13;;;;;;;1.02;1.02;;;11.40;99.90;;;;;;5053832;28;20202;-69
2022/09/25 07:00:40;;;;;;;1.55;1.45;;;11.40;99.90;;;;;;5055196;28;20277;-70
2022/09/25 07:05:50;;;;;;;1.67;1.42;;;11.60;99.90;;;;;;5055129;28;20659;-70
2022/09/25 07:08:19;;;;;;;1.33;1.33;;;11.70;99.90;;;;;;5055165;28;20713;-70
2022/09/25 07:10:53;;;;;;;1.90;1.50;;;11.70;99.90;;;;;;5054875;28;20471;-69
2022/09/25 07:13:24;;;;;;;1.87;1.77;;;11.80;99.90;;;;;;5054689;28;20460;-70
2022/09/25 07:15:58;;;;;;;1.33;1.23;;;11.90;99.90;;;;;;5054991;28;20411;-70
2022/09/25 07:18:25;;;;;;;1.67;1.58;;;12.00;99.90;;;;;;5054863;28;20541;-70
2022/09/25 07:20:52;;;;;;;1.40;1.27;;;12.10;99.90;;;;;;5055131;28;20695;-68
2022/09/25 07:23:19;;;;;;;0.60;0.60;;;12.20;99.90;;;;;;5054806;28;20493;-69
2022/09/25 07:25:46;;;;;;;0.50;0.50;;;12.30;99.90;;;;;;5054784;28;20432;-68
2022/09/25 07:28:13;;;;;;;2.67;2.47;;;12.50;99.90;;;;;;5054858;28;20472;-69
2022/09/25 07:30:39;;;;;;;1.43;1.37;;;12.60;99.90;;;;;;5054649;28;20490;-70
2022/09/25 07:33:05;;;;;;;1.23;1.23;;;12.80;99.90;;;;;;5054283;28;20415;-70
2022/09/25 07:35:33;;;;;;;0.40;0.40;;;12.90;99.90;;;;;;5054469;28;20399;-69
2022/09/25 07:37:59;;;;;;;0.87;0.87;;;13.10;99.90;;;;;;5054437;28;20459;-68
2022/09/25 07:40:27;;;;;;;0.87;0.87;;;13.20;99.90;;;;;;5054382;28;20432;-69
2022/09/25 07:42:58;;;;;;;0.83;0.83;;;13.10;99.90;;;;;;5054210;28;20169;-69
2022/09/25 07:45:24;;;;;;;1.03;1.03;;;13.20;99.90;;;;;;5053527;28;20406;-70
2022/09/25 07:47:54;;;;;;;1.77;1.33;;;12.90;99.90;;;;;;5054179;28;20910;-70
2022/09/25 07:50:19;;;;;;;0.80;0.80;;;13.10;99.90;;;;;;5054098;28;20189;-68
2022/09/25 07:52:45;;;;;;;0.80;0.80;;;13.10;99.90;;;;;;5052705;28;20430;-70
2022/09/25 07:55:11;;;;;;;1.77;1.67;;;12.90;99.90;;;;;;5054234;28;20169;-70
2022/09/25 07:57:36;;;;;;;1.70;1.60;;;13.10;99.90;;;;;;5054107;28;20186;-69
2022/09/25 08:00:04;;;;;;;3.70;1.30;;;13.60;99.90;;;;;;5054126;28;20176;-70
2022/09/25 08:02:30;;;;;;;0.83;0.83;;;13.40;99.90;;;;;;5054029;28;20168;-70
2022/09/25 08:04:55;;;;;;;2.13;2.03;;;13.80;99.90;;;;;;5053831;28;20407;-69
2022/09/25 08:07:21;;;;;;;2.20;1.27;;;13.70;99.90;;;;;;5053954;28;20544;-70
2022/09/25 08:09:47;;;;;;;1.17;1.07;;;13.90;99.90;;;;;;5053952;28;20173;-69
2022/09/25 08:12:12;;;;;;;0.73;0.73;;;14.20;99.90;;;;;;5052324;28;20266;-70
2022/09/25 08:14:38;;;;;;;2.40;2.30;;;14.40;99.90;;;;;;5052958;28;20170;-70
2022/09/25 08:17:04;;;;;;;0.60;0.60;;;15.20;99.90;;;;;;5053950;28;20587;-70
2022/09/25 08:19:29;;;;;;;2.27;1.87;;;14.70;99.90;;;;;;5053799;28;20224;-70
2022/09/25 08:21:55;;;;;;;2.23;1.63;;;14.70;99.90;;;;;;5052450;28;20621;-70
2022/09/25 08:24:20;;;;;;;2.33;2.13;;;14.90;99.90;;;;;;5053127;28;20170;-69
2022/09/25 08:26:46;;;;;;;1.10;1.00;;;15.10;99.90;;;;;;5053449;28;20192;-71
2022/09/25 08:29:12;;;;;;;2.00;1.90;;;14.90;99.90;;;;;;5051910;28;20544;-70
2022/09/25 08:31:40;;;;;;;0.93;0.90;;;15.00;99.40;;;;;;5053430;28;20602;-71
2022/09/25 08:34:09;;;;;;;1.00;1.00;;;14.90;99.90;;;;;;5053555;28;20166;-69
2022/09/25 08:36:34;;;;;;;0.80;0.80;;;15.20;99.90;;;;;;5052579;28;20783;-69
2022/09/25 08:39:00;;;;;;;0.80;0.80;;;;;;;;;;5053734;28;20452;-69
2022/09/25 08:41:33;;;;;;;0.50;0.50;;;14.90;99.90;;;;;;5049774;28;20556;-68
2022/09/25 08:43:59;;;;;;;1.60;0.90;;;;;;;;;;5052672;28;20405;-76
2022/09/25 08:50:13;;;;;;;0.60;0.60;;;15.20;99.00;;;;;;5052930;28;20468;-71
2022/09/25 08:52:46;;;;;;;1.30;1.20;;;15.20;99.90;;;;;;5052152;28;20407;-70
2022/09/25 08:56:13;;;;;;;0.73;0.73;;;15.50;99.50;;;;;;5053642;28;20392;-70
2022/09/25 08:58:23;;;;;;;0.83;0.80;;;15.60;99.50;;;;;;5057234;28;20463;-70
2022/09/25 09:00:53;;;;;;;1.40;1.00;;;15.40;99.10;;;;;;5057645;28;20427;-69
2022/09/25 09:03:21;;;;;;;0.83;0.80;;;15.50;99.40;;;;;;5057291;28;20499;-70
2022/09/25 09:05:50;;;;;;;0.50;0.50;;;15.60;99.40;;;;;;5057676;28;20400;-70
2022/09/25 09:08:24;;;;;;;1.00;0.97;;;15.70;99.20;;;;;;5057822;28;20495;-70
2022/09/25 09:10:56;;;;;;;0.97;0.97;;;15.70;99.10;;;;;;5057960;28;20917;-69
2022/09/25 09:13:30;;;;;;;1.60;1.50;;;15.60;99.40;;;;;;5057118;28;20400;-70
2022/09/25 09:16:13;;;;;;;1.80;0.90;;;15.60;99.60;;;;;;5057439;28;20415;-70
2022/09/25 09:18:41;;;;;;;1.00;0.90;;;15.50;99.90;;;;;;5057398;28;20450;-68
2022/09/25 09:21:26;;;;;;;0.60;0.60;;;15.50;99.50;;;;;;5057636;28;20517;-70
2022/09/25 09:24:05;;;;;;;0.70;0.50;;;15.40;99.50;;;;;;5055339;28;20404;-70
2022/09/25 09:26:49;;;;;;;0.90;0.90;;;15.30;99.60;;;;;;5056891;28;20485;-70
2022/09/25 09:29:23;;;;;;;2.17;2.07;;;15.20;99.60;;;;;;5057027;28;20456;-70
2022/09/25 09:32:01;;;;;;;3.23;0.93;;;15.10;99.90;;;;;;5053928;28;20806;-69
2022/09/25 09:34:29;;;;;;;0.93;0.93;;;15.10;99.90;;;;;;5056713;28;20808;-70
2022/09/25 09:37:14;;;;;;;1.53;1.43;;;15.10;99.90;;;;;;5057058;28;20396;-69
2022/09/25 09:40:02;;;;;;;1.07;0.90;;;15.20;99.90;;;;;;5055432;28;20449;-69
2022/09/25 09:42:35;;;;;;;0.60;0.60;;;15.50;99.90;;;;;;5056837;28;20461;-68
2022/09/25 09:45:07;;;;;;;0.80;0.80;;;15.70;99.70;;;;;;5055137;28;20406;-70
2022/09/25 09:47:39;;;;;;;1.77;0.77;;;16.00;99.00;;;;;;5056979;28;20739;-69
2022/09/25 09:50:26;;;;;;;1.57;1.47;;;15.90;99.90;;;;;;5055897;28;20458;-70
2022/09/25 09:53:00;;;;;;;0.93;0.90;;;16.00;98.70;;;;;;5054759;28;20939;-70
2022/09/25 09:55:40;;;;;;;0.57;0.50;;;15.90;99.10;;;;;;5055631;28;20442;-70
2022/09/25 09:58:20;;;;;;;1.47;1.00;;;16.00;98.90;;;;;;5054756;28;20500;-71
2022/09/25 10:00:48;;;;;;;2.13;2.03;;;16.00;99.20;;;;;;5056933;28;20951;-69
2022/09/25 10:03:27;;;;;;;1.87;1.77;;;15.90;99.00;;;;;;5056152;28;20404;-70
2022/09/25 10:05:59;;;;;;;0.50;0.50;;;15.80;99.50;;;;;;5056543;28;20442;-69
2022/09/25 10:08:25;;;;;;;2.20;2.10;;;15.70;99.30;;;;;;5055054;28;20415;-70
2022/09/25 10:10:56;;;;;;;1.03;1.03;;;15.50;99.40;;;;;;5056184;28;20781;-70
2022/09/25 10:13:31;;;;;;;1.43;1.33;;;15.40;99.70;;;;;;5056012;28;20151;-69
2022/09/25 10:16:10;;;;;;;1.63;1.13;;;15.20;99.90;;;;;;5056182;28;20715;-69
2022/09/25 10:18:53;;;;;;;0.80;0.73;;;15.10;99.90;;;;;;5056183;28;20942;-71
2022/09/25 10:21:22;;;;;;;3.90;1.03;;;15.20;99.90;;;;;;5054606;28;20910;-71
2022/09/25 10:23:53;;;;;;;0.83;0.67;;;15.40;99.90;;;;;;5055153;28;20842;-70
2022/09/25 10:26:25;;;;;;;0.60;0.60;;;15.60;99.90;;;;;;5055757;28;20495;-69
2022/09/25 10:28:52;;;;;;;0.70;0.70;;;15.80;99.90;;;;;;5055937;28;20403;-70
2022/09/25 10:31:19;;;;;;;0.77;0.77;;;16.10;99.50;;;;;;5055895;28;20517;-71
2022/09/25 10:34:15;;;;;;;0.40;0.40;;;16.30;99.70;;;;;;5053869;28;20415;-70
2022/09/25 10:36:52;;;;;;;0.70;0.70;;;16.40;98.90;;;;;;5054375;28;20486;-70
2022/09/25 10:39:32;;;;;;;0.50;0.50;;;16.60;98.00;;;;;;5054283;28;20456;-69
2022/09/25 10:41:59;;;;;;;0.60;0.60;;;16.80;97.90;;;;;;5054518;28;20428;-70
2022/09/25 10:44:36;;;;;;;0.90;0.90;;;16.80;96.90;;;;;;5054345;28;20858;-71
2022/09/25 10:50:27;;;;;;;2.13;2.03;;;17.10;99.90;;;;;;5055519;28;20454;-70
2022/09/25 10:53:02;;;;;;;0.60;0.43;;;17.00;96.60;;;;;;5055180;28;20388;-71
2022/09/25 10:55:36;;;;;;;2.30;1.23;;;16.90;95.60;;;;;;5055537;28;20482;-70
2022/09/25 10:58:13;;;;;;;0.90;0.90;;;16.70;95.80;;;;;;5055242;28;20440;-70
2022/09/25 11:00:53;;;;;;;1.00;1.00;;;16.60;95.70;;;;;;5055204;28;20428;-70
2022/09/25 11:03:29;;;;;;;0.90;0.90;;;16.60;95.80;;;;;;5054982;28;20384;-69
2022/09/25 11:05:59;;;;;;;0.60;0.60;;;16.40;96.20;;;;;;5055095;28;20400;-70
2022/09/25 11:08:29;;;;;;;1.13;0.93;;;16.60;96.10;;;;;;5055223;28;20396;-70
2022/09/25 11:10:58;;;;;;;0.97;0.97;;;16.60;96.40;;;;;;5054876;28;20516;-69
2022/09/25 11:13:27;;;;;;;0.83;0.83;;;16.80;96.00;;;;;;5054908;28;20408;-70
2022/09/25 11:16:00;;;;;;;1.30;1.30;;;17.00;96.80;;;;;;5055074;28;20405;-69
2022/09/25 11:18:43;;;;;;;1.00;1.00;;;17.40;95.60;;;;;;5054495;28;20449;-71
2022/09/25 11:21:25;;;;;;;1.07;0.97;;;18.00;96.20;;;;;;5054708;28;20784;-69
2022/09/25 11:24:03;;;;;;;1.10;1.00;;;18.10;94.10;;;;;;5054571;28;20405;-70
2022/09/25 11:26:49;;;;;;;0.80;0.80;;;18.30;94.10;;;;;;5054628;28;20803;-70
2022/09/25 11:29:24;;;;;;;1.70;1.07;;;18.80;94.10;;;;;;5054863;28;20443;-70
2022/09/25 11:31:58;;;;;;;1.57;1.47;;;19.10;93.30;;;;;;5054604;28;20460;-70
2022/09/25 11:35:12;;;;;;;0.67;0.67;;;19.20;91.70;;;;;;5054336;28;20413;-70
2022/09/25 11:38:01;;;;;;;0.50;0.40;;;19.20;91.80;;;;;;5046078;28;20466;-71
2022/09/25 11:43:34;;;;;;;1.80;1.23;;;19.00;92.20;;;;;;5054174;28;20760;-70
2022/09/25 11:46:09;;;;;;;1.23;1.23;;;18.70;92.40;;;;;;5054578;28;20916;-70
2022/09/25 11:48:56;;;;;;;1.07;0.97;;;18.20;92.50;;;;;;5054378;28;20400;-70
2022/09/25 11:51:40;;;;;;;0.77;0.77;;;17.70;94.10;;;;;;5054347;28;20992;-69
2022/09/25 11:54:24;;;;;;;0.67;0.67;;;17.30;94.60;;;;;;5054000;28;20400;-71
2022/09/25 11:56:56;;;;;;;0.77;0.77;;;16.80;95.70;;;;;;5054428;28;20917;-70
2022/09/25 12:00:13;;;;;;;0.80;0.80;;;16.50;96.40;;;;;;5054162;28;20539;-70
2022/09/25 12:03:00;;;;;;;0.60;0.60;;;16.30;96.60;;;;;;5053142;28;20886;-70
2022/09/25 12:05:54;;;;;;;1.33;0.83;;;16.30;96.30;;;;;;5054073;28;20885;-70
2022/09/25 12:08:37;;;;;;;0.70;0.70;;;16.30;96.40;;;;;;5054124;28;20400;-69
2022/09/25 12:11:15;;;;;;;1.10;0.97;;;16.50;97.10;;;;;;5053728;28;20424;-70
2022/09/25 12:13:58;;;;;;;1.70;1.60;;;16.60;96.50;;;;;;5053773;28;20396;-71
2022/09/25 12:16:28;;;;;;;1.07;1.07;;;16.50;96.20;;;;;;5053959;28;20448;-71
2022/09/25 12:19:13;;;;;;;1.27;0.90;;;16.40;96.30;;;;;;5053643;28;20480;-70
2022/09/25 12:21:45;;;;;;;0.87;0.83;;;16.20;96.50;;;;;;5053642;28;20420;-70
2022/09/25 12:24:25;;;;;;;1.57;0.90;;;16.00;97.10;;;;;;5053621;28;20409;-70
2022/09/25 12:27:17;;;;;;;1.47;1.37;;;15.90;99.90;;;;;;5053501;28;20424;-70
2022/09/25 12:30:10;;;;;;;0.97;0.97;;;15.90;98.20;;;;;;5053050;28;20421;-70
2022/09/25 12:32:51;;;;;;;4.70;1.40;;;16.20;98.40;;;;;;5053419;28;20476;-70
2022/09/25 12:35:35;;;;;;;1.07;0.50;;;16.40;99.90;;;;;;5053890;28;20443;-70
2022/09/25 12:38:19;;;;;;;0.77;0.77;;;16.50;96.40;;;;;;5053486;28;20454;-70
2022/09/25 12:41:10;;;;;;;2.30;1.27;;;16.60;96.80;;;;;;5053749;28;20420;-70
2022/09/25 12:43:53;;;;;;;1.80;0.97;;;16.70;96.50;;;;;;5052628;28;20509;-70
2022/09/25 12:46:25;;;;;;;2.00;1.00;;;16.70;96.00;;;;;;5053432;28;20761;-70
2022/09/25 12:49:10;;;;;;;2.20;0.83;;;16.90;95.90;;;;;;5053462;28;20408;-70
2022/09/25 12:51:42;;;;;;;0.90;0.90;;;17.00;95.70;;;;;;5053306;28;20424;-69
2022/09/25 12:54:35;;;;;;;0.87;0.87;;;17.00;95.50;;;;;;5053220;28;20419;-70
2022/09/25 12:57:44;;;;;;;1.47;1.47;;;17.10;95.80;;;;;;5053643;28;20401;-68
2022/09/25 13:00:29;;;;;;;0.50;0.50;;;17.30;99.90;;;;;;5053394;28;20431;-70
2022/09/25 13:03:05;;;;;;;1.07;0.87;;;17.10;94.60;;;;;;5053028;28;20401;-70
2022/09/25 13:05:36;;;;;;;0.83;0.83;;;16.70;94.90;;;;;;5053445;28;20401;-70
2022/09/25 13:08:28;;;;;;;0.70;0.70;;;16.70;95.40;;;;;;5053291;28;20940;-70
2022/09/25 13:10:53;;;;;;;1.17;1.07;;;16.90;96.10;;;;;;5053294;28;20485;-70
2022/09/25 13:13:23;;;;;;;0.40;0.40;;;17.00;94.50;;;;;;5052923;28;20869;-69
2022/09/25 13:16:00;;;;;;;0.97;0.77;;;17.00;94.80;;;;;;5053161;28;20171;-69
2022/09/25 13:18:28;;;;;;;1.53;0.50;;;17.00;95.30;;;;;;5053145;28;20454;-70
2022/09/25 13:21:11;;;;;;;0.97;0.97;;;17.10;95.40;;;;;;5053193;28;20431;-69
2022/09/25 13:23:40;;;;;;;0.93;0.93;;;17.10;95.20;;;;;;5053182;28;20393;-70
2022/09/25 13:26:17;;;;;;;1.27;0.80;;;17.00;94.70;;;;;;5052803;28;20438;-70
2022/09/25 13:28:59;;;;;;;1.03;0.60;;;16.90;94.80;;;;;;5053172;28;20412;-70
2022/09/25 13:31:27;;;;;;;1.27;1.20;;;16.80;95.00;;;;;;5052961;28;20431;-70
2022/09/25 13:34:01;;;;;;;2.30;1.50;;;16.70;95.70;;;;;;5053152;28;20495;-70
2022/09/25 13:36:27;;;;;;;1.93;0.60;;;16.60;95.10;;;;;;5053171;28;20400;-70